Skip Navigation Links Skip Navigation Links

Current Weather

Phoenix Sky Harbor Intl, Phoenix, Ariz.

For information only: do not use for flight planning or navigation.
Latest weather
Observation time Sunday, August 1, 2021 2:51 AM MST
Local time Sunday, August 1, 2021 3:16 AM MST
Flight conditions Visual Meteorological Conditions
Winds
Wind direction East (80°)
Wind speed 7 mph
Visibility 10 mi.
Sky condition
Ceiling unlimited
Sky clear
Temperature 89°F
Dewpoint 67°F
Altimeter 29.94 in.Hg
Derived measurements
Relative humidity 48%
Heat index 92°F
Density altitude 3327 ft.
Sea-level pressure 29.87 in.Hg
Remarks
Automated weather observing station with precipitation discriminator.
METAR KPHX 010951Z 08006KT 10SM CLR 32/19 A2994 RMK AO2 SLP116 T03170194

Settings

Location code

InnerDrive.Weather 4.0.6770.0 Release CLR 4.0.30319.42000
Copyright ©2018 Inner Drive Technology. All rights reserved. Portions Copyright ©1986-2018 David Braverman.

Find weather

Site navigation


Skip Navigation Links

Place info

Page info

PayPal - The safer, easier way to pay online!

Return home.

Copyright ©2021 Inner Drive Technology. Purveyors of fine, hand-crafted computer software. Page printed 2021-08-01T10:16:08 UTC.